createdAt,value
2023-01-30T00:01:06.004Z,13.65
2023-01-30T00:03:32.760Z,13.55
2023-01-30T00:05:59.214Z,13.33
2023-01-30T00:08:25.613Z,13.07
2023-01-30T00:10:52.050Z,13.70
2023-01-30T00:13:18.430Z,15.00
2023-01-30T00:15:44.921Z,14.63
2023-01-30T00:18:11.438Z,13.53
2023-01-30T00:20:37.973Z,13.65
2023-01-30T00:23:05.150Z,12.13
2023-01-30T00:25:31.902Z,12.32
2023-01-30T00:28:02.084Z,12.48
2023-01-30T00:30:29.640Z,12.00
2023-01-30T00:32:57.578Z,12.73
2023-01-30T00:35:28.356Z,13.48
2023-01-30T00:37:57.056Z,12.73
2023-01-30T00:40:25.416Z,11.65
2023-01-30T00:45:59.382Z,10.98
2023-01-30T00:48:26.195Z,11.60
2023-01-30T00:50:52.790Z,11.70
2023-01-30T00:53:19.428Z,12.25
2023-01-30T00:55:45.963Z,12.83
2023-01-30T00:58:13.399Z,11.50
2023-01-30T01:00:40.298Z,11.18
2023-01-30T01:03:07.054Z,11.35
2023-01-30T01:05:33.695Z,9.18
2023-01-30T01:08:00.770Z,11.50
2023-01-30T01:10:27.282Z,11.18
2023-01-30T01:12:53.845Z,10.88
2023-01-30T01:15:22.136Z,10.27
2023-01-30T01:17:49.324Z,10.07
2023-01-30T01:20:17.253Z,10.50
2023-01-30T01:22:44.186Z,9.43
2023-01-30T01:25:11.330Z,9.07
2023-01-30T01:27:38.638Z,9.50
2023-01-30T01:30:06.385Z,7.90
2023-01-30T01:32:32.994Z,10.47
2023-01-30T01:34:59.419Z,10.07
2023-01-30T01:37:26.080Z,9.10
2023-01-30T01:40:10.797Z,9.07
2023-01-30T01:42:39.173Z,10.13
2023-01-30T01:45:11.737Z,9.93
2023-01-30T01:47:43.253Z,9.02
2023-01-30T01:50:15.356Z,9.57
2023-01-30T01:52:43.545Z,9.00
2023-01-30T01:55:11.329Z,9.95
2023-01-30T01:57:51.406Z,9.57
2023-01-30T02:00:20.526Z,9.10
2023-01-30T02:02:58.376Z,9.18
2023-01-30T02:05:30.134Z,9.90
2023-01-30T02:08:31.661Z,8.77
2023-01-30T02:11:22.382Z,8.97
2023-01-30T02:13:50.558Z,8.88
2023-01-30T02:16:17.529Z,8.35
2023-01-30T02:18:46.429Z,8.25
2023-01-30T02:21:40.102Z,9.07
2023-01-30T02:24:44.018Z,8.27
2023-01-30T02:27:22.524Z,8.75
2023-01-30T02:30:06.937Z,8.50
2023-01-30T02:32:38.442Z,8.82
2023-01-30T02:35:26.708Z,8.43
2023-01-30T02:38:28.678Z,9.33
2023-01-30T02:41:05.059Z,8.65
2023-01-30T02:43:40.826Z,8.02
2023-01-30T02:46:24.426Z,8.60
2023-01-30T02:49:32.213Z,9.13
2023-01-30T02:52:01.415Z,8.13
2023-01-30T02:54:28.066Z,8.65
2023-01-30T02:56:58.652Z,8.88
2023-01-30T02:59:41.732Z,9.23
2023-01-30T03:02:17.305Z,8.45
2023-01-30T03:05:02.500Z,8.27
2023-01-30T03:07:50.214Z,7.80
2023-01-30T03:10:28.986Z,8.60
2023-01-30T03:13:11.588Z,8.43
2023-01-30T03:15:48.410Z,9.23
2023-01-30T03:18:16.449Z,8.33
2023-01-30T03:20:43.011Z,9.27
2023-01-30T03:23:09.449Z,8.30
2023-01-30T03:25:38.169Z,8.15
2023-01-30T03:28:05.861Z,7.90
2023-01-30T03:30:32.604Z,8.23
2023-01-30T03:32:59.249Z,7.72
2023-01-30T03:35:25.985Z,8.40
2023-01-30T03:37:53.570Z,8.52
2023-01-30T03:40:20.123Z,8.00
2023-01-30T03:42:46.535Z,8.00
2023-01-30T03:45:13.133Z,8.27
2023-01-30T03:47:39.566Z,8.88
2023-01-30T03:50:06.286Z,8.43
2023-01-30T03:52:35.162Z,8.38
2023-01-30T03:55:01.915Z,8.13
2023-01-30T03:57:28.356Z,9.27
2023-01-30T03:59:54.876Z,8.35
2023-01-30T04:02:23.288Z,9.18
2023-01-30T04:04:49.880Z,9.00
2023-01-30T04:07:16.393Z,8.67
2023-01-30T04:09:42.820Z,10.02
2023-01-30T04:12:09.262Z,9.70
2023-01-30T04:14:35.779Z,7.95
2023-01-30T04:17:02.243Z,8.35
2023-01-30T04:19:28.652Z,8.30
2023-01-30T04:21:55.094Z,8.45
2023-01-30T04:24:21.593Z,8.43
2023-01-30T04:26:48.068Z,8.80
2023-01-30T04:29:14.497Z,9.07
2023-01-30T04:31:40.968Z,8.20
2023-01-30T04:34:07.454Z,8.50
2023-01-30T04:36:33.847Z,9.05
2023-01-30T04:39:00.214Z,7.57
2023-01-30T04:41:26.702Z,8.10
2023-01-30T04:43:53.332Z,8.73
2023-01-30T04:46:19.795Z,8.07
2023-01-30T04:48:46.308Z,9.05
2023-01-30T04:51:12.750Z,8.52
2023-01-30T04:53:39.488Z,7.60
2023-01-30T04:56:06.523Z,8.30
2023-01-30T04:58:32.932Z,8.13
2023-01-30T05:01:22.847Z,9.25
2023-01-30T05:03:53.493Z,8.60
2023-01-30T05:06:20.584Z,7.75
2023-01-30T05:08:52.047Z,9.03
2023-01-30T05:11:19.547Z,7.95
2023-01-30T05:13:46.677Z,8.75
2023-01-30T05:16:14.868Z,8.75
2023-01-30T05:18:41.816Z,7.78
2023-01-30T05:21:14.248Z,8.20
2023-01-30T05:23:41.117Z,8.43
2023-01-30T05:26:07.629Z,9.57
2023-01-30T05:28:35.188Z,9.25
2023-01-30T05:31:02.938Z,9.05
2023-01-30T05:33:29.725Z,10.33
2023-01-30T05:35:56.271Z,8.93
2023-01-30T05:38:23.996Z,9.50
2023-01-30T05:41:04.052Z,9.80
2023-01-30T05:43:31.449Z,8.10
2023-01-30T05:45:59.893Z,8.17
2023-01-30T05:48:26.761Z,8.63
2023-01-30T05:50:54.714Z,10.02
2023-01-30T05:53:23.369Z,8.27
2023-01-30T05:55:56.644Z,7.88
2023-01-30T05:58:23.681Z,7.93
2023-01-30T06:00:50.661Z,7.00
2023-01-30T06:03:17.151Z,8.02
2023-01-30T06:05:43.653Z,7.82
2023-01-30T06:08:10.211Z,8.57
2023-01-30T06:10:36.634Z,7.83
2023-01-30T06:13:03.638Z,8.48
2023-01-30T06:15:30.382Z,8.80
2023-01-30T06:17:57.048Z,9.20
2023-01-30T06:20:23.397Z,7.60
2023-01-30T06:22:49.823Z,6.93
2023-01-30T06:25:16.671Z,8.15
2023-01-30T06:27:45.134Z,7.22
2023-01-30T06:30:12.506Z,7.25
2023-01-30T06:32:38.931Z,6.43
2023-01-30T06:35:05.828Z,7.67
2023-01-30T06:37:32.194Z,8.13
2023-01-30T06:39:58.576Z,8.85
2023-01-30T06:42:24.974Z,7.88
2023-01-30T06:44:51.485Z,6.70
2023-01-30T06:47:17.880Z,6.90
2023-01-30T06:49:44.299Z,7.00
2023-01-30T06:52:10.889Z,6.85
2023-01-30T06:54:37.355Z,6.95
2023-01-30T06:57:04.595Z,6.75
2023-01-30T06:59:30.991Z,7.33
2023-01-30T07:01:57.495Z,6.80
2023-01-30T07:04:24.005Z,7.85
2023-01-30T07:06:50.789Z,7.40
2023-01-30T07:09:17.346Z,6.53
2023-01-30T07:11:43.852Z,8.00
2023-01-30T07:14:10.539Z,6.80
2023-01-30T07:16:37.004Z,6.53
2023-01-30T07:19:03.540Z,6.32
2023-01-30T07:21:29.976Z,7.55
2023-01-30T07:23:56.396Z,5.40
2023-01-30T07:26:22.875Z,7.20
2023-01-30T07:28:49.469Z,6.35
2023-01-30T07:31:15.933Z,6.13
2023-01-30T07:33:42.370Z,5.80
2023-01-30T07:36:09.309Z,5.30
2023-01-30T07:38:35.729Z,5.47
2023-01-30T07:41:02.284Z,5.38
2023-01-30T07:43:28.721Z,6.88
2023-01-30T07:45:55.360Z,5.65
2023-01-30T07:48:21.909Z,5.33
2023-01-30T07:50:48.360Z,5.63
2023-01-30T07:53:17.451Z,5.75
2023-01-30T07:55:44.437Z,5.82
2023-01-30T07:58:17.477Z,5.47
2023-01-30T08:00:44.452Z,5.70
2023-01-30T08:03:13.169Z,5.00
2023-01-30T08:05:39.607Z,4.40
2023-01-30T08:08:06.027Z,5.30
2023-01-30T08:10:32.403Z,5.25
2023-01-30T08:12:58.906Z,4.73
2023-01-30T08:15:25.476Z,4.85
2023-01-30T08:17:56.083Z,4.60
2023-01-30T08:20:23.097Z,4.78
2023-01-30T08:22:49.785Z,4.30
2023-01-30T08:25:16.248Z,4.37
2023-01-30T08:27:42.691Z,4.10
2023-01-30T08:30:11.096Z,3.97
2023-01-30T08:32:37.699Z,3.60
2023-01-30T08:35:04.411Z,3.80
2023-01-30T08:37:31.130Z,3.67
2023-01-30T08:39:57.689Z,3.78
2023-01-30T08:42:24.221Z,3.75
2023-01-30T08:44:51.036Z,3.45
2023-01-30T08:47:17.584Z,3.72
2023-01-30T08:49:44.137Z,3.67
2023-01-30T08:52:10.875Z,3.10
2023-01-30T08:54:37.312Z,3.17
2023-01-30T08:57:03.786Z,3.17
2023-01-30T08:59:30.814Z,2.60
2023-01-30T09:01:57.270Z,3.10
2023-01-30T09:04:24.962Z,3.00
2023-01-30T09:06:51.451Z,3.30
2023-01-30T09:09:18.250Z,3.00
2023-01-30T09:11:44.783Z,2.50
2023-01-30T09:14:11.290Z,2.80
2023-01-30T09:16:37.755Z,2.40
2023-01-30T09:19:04.294Z,2.63
2023-01-30T09:21:32.092Z,2.30
2023-01-30T09:23:58.500Z,2.67
2023-01-30T09:26:25.097Z,2.87
2023-01-30T09:28:51.740Z,2.50
2023-01-30T09:31:18.461Z,2.83
2023-01-30T09:33:45.032Z,2.20
2023-01-30T09:36:11.496Z,2.47
2023-01-30T09:38:48.241Z,3.00
2023-01-30T09:41:38.003Z,2.60
2023-01-30T09:44:23.339Z,2.80
2023-01-30T09:47:05.527Z,2.42
2023-01-30T09:49:53.766Z,2.10
2023-01-30T09:52:32.905Z,2.10
2023-01-30T09:55:14.493Z,1.92
2023-01-30T09:57:41.591Z,1.65
2023-01-30T10:00:32.251Z,1.90
2023-01-30T10:03:14.907Z,1.73
2023-01-30T10:05:56.855Z,2.50
2023-01-30T10:08:42.134Z,2.08
2023-01-30T10:11:24.092Z,2.00
2023-01-30T10:14:05.931Z,1.80
2023-01-30T10:17:01.327Z,1.90
2023-01-30T10:19:49.872Z,1.70
2023-01-30T10:22:34.574Z,2.05
2023-01-30T10:25:37.979Z,1.88
2023-01-30T10:28:16.078Z,2.70
2023-01-30T10:30:47.107Z,1.90
2023-01-30T10:33:21.655Z,2.00
2023-01-30T10:35:58.590Z,1.80
2023-01-30T10:38:41.936Z,1.88
2023-01-30T10:41:26.562Z,1.80
2023-01-30T10:44:12.908Z,1.70
2023-01-30T10:47:14.064Z,1.50
2023-01-30T10:49:46.483Z,1.60
2023-01-30T10:52:31.630Z,1.75
2023-01-30T10:55:10.968Z,2.20
2023-01-30T10:58:01.658Z,2.10
2023-01-30T11:00:35.808Z,2.30
2023-01-30T11:03:13.119Z,2.10
2023-01-30T11:05:48.666Z,2.13
2023-01-30T11:08:33.361Z,2.10
2023-01-30T11:11:01.110Z,2.08
2023-01-30T11:13:30.502Z,1.87
2023-01-30T11:16:00.016Z,1.80
2023-01-30T11:19:17.339Z,1.95
2023-01-30T11:21:32.101Z,1.95
2023-01-30T11:24:18.080Z,2.08
2023-01-30T11:26:48.198Z,2.17
2023-01-30T11:29:16.085Z,2.42
2023-01-30T11:31:42.807Z,2.50
2023-01-30T11:34:16.344Z,2.05
2023-01-30T11:36:43.171Z,2.40
2023-01-30T11:39:12.726Z,2.23
2023-01-30T11:42:10.390Z,2.35
2023-01-30T11:44:40.258Z,2.30
2023-01-30T11:47:21.753Z,3.15
2023-01-30T11:49:58.405Z,2.28
2023-01-30T11:52:42.500Z,2.67
2023-01-30T11:55:13.614Z,2.13
2023-01-30T11:58:08.409Z,2.30
2023-01-30T12:00:39.818Z,3.08
2023-01-30T12:03:12.094Z,2.00
2023-01-30T12:05:43.844Z,2.63
2023-01-30T12:08:17.510Z,2.55
2023-01-30T12:10:55.161Z,2.60
2023-01-30T12:13:34.182Z,2.42
2023-01-30T12:16:13.609Z,2.72
2023-01-30T12:18:57.031Z,2.43
2023-01-30T12:21:46.286Z,2.58
2023-01-30T12:24:34.413Z,2.75
2023-01-30T12:27:30.214Z,2.60
2023-01-30T12:33:06.971Z,2.97
2023-01-30T12:35:52.740Z,2.80
2023-01-30T12:38:46.400Z,2.60
2023-01-30T12:41:38.303Z,2.50
2023-01-30T12:44:32.694Z,2.65
2023-01-30T12:47:07.842Z,2.20
2023-01-30T12:49:49.245Z,2.13
2023-01-30T12:52:40.047Z,2.50
2023-01-30T12:55:30.702Z,2.40
2023-01-30T12:58:11.667Z,2.70
2023-01-30T13:01:06.736Z,2.60
2023-01-30T13:03:41.952Z,2.10
2023-01-30T13:06:42.802Z,2.78
2023-01-30T13:09:37.451Z,2.35
2023-01-30T13:12:22.269Z,2.65
2023-01-30T13:14:55.986Z,2.47
2023-01-30T13:17:53.464Z,2.65
2023-01-30T13:20:38.511Z,2.50
2023-01-30T13:23:10.910Z,2.60
2023-01-30T13:25:48.299Z,2.72
2023-01-30T13:28:25.843Z,2.60
2023-01-30T13:30:53.595Z,2.78
2023-01-30T13:33:25.385Z,2.70
2023-01-30T13:36:05.691Z,2.90
2023-01-30T13:38:36.268Z,3.30
2023-01-30T13:41:04.336Z,2.83
2023-01-30T13:43:46.583Z,3.50
2023-01-30T13:46:23.675Z,2.97
2023-01-30T13:49:18.277Z,2.65
2023-01-30T13:52:08.873Z,2.70
2023-01-30T13:54:42.153Z,2.83
2023-01-30T13:57:21.238Z,3.35
2023-01-30T14:00:16.974Z,3.03
2023-01-30T14:03:07.940Z,3.20
2023-01-30T14:06:00.859Z,2.70
2023-01-30T14:08:45.919Z,3.20
2023-01-30T14:11:37.346Z,3.22
2023-01-30T14:14:22.752Z,3.25
2023-01-30T14:16:53.179Z,2.50
2023-01-30T14:19:39.848Z,2.50
2023-01-30T14:22:20.704Z,2.40
2023-01-30T14:25:25.172Z,3.00
2023-01-30T14:27:53.378Z,4.07
2023-01-30T14:30:31.983Z,3.22
2023-01-30T14:33:00.782Z,2.40
2023-01-30T14:35:29.751Z,2.57
2023-01-30T14:38:21.766Z,3.28
2023-01-30T14:41:09.395Z,6.53
2023-01-30T14:43:38.533Z,3.65
2023-01-30T14:46:18.717Z,3.03
2023-01-30T14:48:50.095Z,4.00
2023-01-30T14:51:42.598Z,3.15
2023-01-30T14:54:12.451Z,2.88
2023-01-30T14:56:44.993Z,3.22
2023-01-30T14:59:22.751Z,3.10
2023-01-30T15:01:57.144Z,3.63
2023-01-30T15:04:26.145Z,2.72
2023-01-30T15:06:53.153Z,3.60
2023-01-30T15:09:26.870Z,3.10
2023-01-30T15:12:11.275Z,3.22
2023-01-30T15:15:00.741Z,3.27
2023-01-30T15:17:35.527Z,4.40
2023-01-30T15:20:17.824Z,3.30
2023-01-30T15:23:12.897Z,3.65
2023-01-30T15:25:48.502Z,3.80
2023-01-30T15:28:36.494Z,3.20
2023-01-30T15:31:14.291Z,3.60
2023-01-30T15:33:52.167Z,2.67
2023-01-30T15:36:35.080Z,2.80
2023-01-30T15:39:02.711Z,3.53
2023-01-30T15:41:32.451Z,2.67
2023-01-30T15:44:07.371Z,4.32
2023-01-30T15:46:57.058Z,3.00
2023-01-30T15:49:54.020Z,3.63
2023-01-30T15:52:22.945Z,3.08
2023-01-30T15:54:55.979Z,3.30
2023-01-30T15:57:32.723Z,3.15
2023-01-30T15:59:59.819Z,5.13
2023-01-30T16:02:36.797Z,3.00
2023-01-30T16:05:21.658Z,4.38
2023-01-30T16:07:51.129Z,4.63
2023-01-30T16:10:20.850Z,4.10
2023-01-30T16:12:48.877Z,3.20
2023-01-30T16:15:23.834Z,2.90
2023-01-30T16:18:02.747Z,3.97
2023-01-30T16:20:43.682Z,3.20
2023-01-30T16:23:34.525Z,3.15
2023-01-30T16:26:01.927Z,4.05
2023-01-30T16:28:30.794Z,3.63
2023-01-30T16:31:03.115Z,3.75
2023-01-30T16:33:36.294Z,2.87
2023-01-30T16:36:27.339Z,3.47
2023-01-30T16:38:55.114Z,4.70
2023-01-30T16:41:27.629Z,3.65
2023-01-30T16:44:15.614Z,3.10
2023-01-30T16:46:42.015Z,3.80
2023-01-30T16:49:17.383Z,4.15
2023-01-30T16:51:44.432Z,4.10
2023-01-30T16:54:25.213Z,5.07
2023-01-30T16:56:55.627Z,4.28
2023-01-30T16:59:30.421Z,4.60
2023-01-30T17:01:59.197Z,4.63
2023-01-30T17:04:29.731Z,3.28
2023-01-30T17:07:03.997Z,4.55
2023-01-30T17:09:46.194Z,4.05
2023-01-30T17:12:36.421Z,4.20
2023-01-30T17:15:12.064Z,4.05
2023-01-30T17:17:41.966Z,3.33
2023-01-30T17:20:09.336Z,2.70
2023-01-30T17:22:39.282Z,2.78
2023-01-30T17:25:14.040Z,3.63
2023-01-30T17:27:40.900Z,3.95
2023-01-30T17:30:18.802Z,3.65
2023-01-30T17:32:45.558Z,4.40
2023-01-30T17:35:12.129Z,3.80
2023-01-30T17:37:38.765Z,3.60
2023-01-30T17:40:17.332Z,3.20
2023-01-30T17:42:44.121Z,3.38
2023-01-30T17:45:11.035Z,3.55
2023-01-30T17:47:37.577Z,10.82
2023-01-30T17:50:04.757Z,6.20
2023-01-30T17:52:31.325Z,4.10
2023-01-30T17:54:58.017Z,4.00
2023-01-30T17:57:25.092Z,3.80
2023-01-30T17:59:51.609Z,3.17
2023-01-30T18:02:18.165Z,3.60
2023-01-30T18:04:44.591Z,4.30
2023-01-30T18:07:14.251Z,3.35
2023-01-30T18:09:40.873Z,3.72
2023-01-30T18:12:07.383Z,2.55
2023-01-30T18:14:34.017Z,3.80
2023-01-30T18:17:01.381Z,3.40
2023-01-30T18:19:29.632Z,3.65
2023-01-30T18:21:59.988Z,3.85
2023-01-30T18:24:26.514Z,3.83
2023-01-30T18:26:53.099Z,4.00
2023-01-30T18:29:19.643Z,6.60
2023-01-30T18:31:46.269Z,7.85
2023-01-30T18:34:13.097Z,5.10
2023-01-30T18:36:39.582Z,4.35
2023-01-30T18:39:06.962Z,3.40
2023-01-30T18:41:35.142Z,3.45
2023-01-30T18:44:04.960Z,5.10
2023-01-30T18:46:32.032Z,4.88
2023-01-30T18:48:58.802Z,3.67
2023-01-30T18:51:30.795Z,6.60
2023-01-30T18:53:58.366Z,4.38
2023-01-30T18:56:31.239Z,3.85
2023-01-30T18:59:02.075Z,3.60
2023-01-30T19:01:30.703Z,4.28
2023-01-30T19:03:59.454Z,5.10
2023-01-30T19:06:27.608Z,5.57
2023-01-30T19:08:54.148Z,5.03
2023-01-30T19:11:42.312Z,5.18
2023-01-30T19:14:09.929Z,6.18
2023-01-30T19:16:38.342Z,3.93
2023-01-30T19:19:05.983Z,5.20
2023-01-30T19:21:32.969Z,4.45
2023-01-30T19:24:02.428Z,4.65
2023-01-30T19:26:29.362Z,4.70
2023-01-30T19:28:55.895Z,4.30
2023-01-30T19:31:22.655Z,4.32
2023-01-30T19:33:55.315Z,5.10
2023-01-30T19:36:22.972Z,5.80
2023-01-30T19:38:49.835Z,5.55
2023-01-30T19:41:25.101Z,4.40
2023-01-30T19:43:53.227Z,4.90
2023-01-30T19:46:20.105Z,5.38
2023-01-30T19:48:47.500Z,4.00
2023-01-30T19:51:20.958Z,8.98
2023-01-30T19:53:52.443Z,4.97
2023-01-30T19:56:21.688Z,14.35
2023-01-30T19:58:52.233Z,6.75
2023-01-30T20:01:20.825Z,6.35
2023-01-30T20:03:47.508Z,6.13
2023-01-30T20:06:19.677Z,6.73
2023-01-30T20:08:49.953Z,7.30
2023-01-30T20:11:18.548Z,6.55
2023-01-30T20:13:45.761Z,4.68
2023-01-30T20:16:18.399Z,6.78
2023-01-30T20:18:47.125Z,7.73
2023-01-30T20:21:17.202Z,8.48
2023-01-30T20:23:44.906Z,7.63
2023-01-30T20:26:14.371Z,10.63
2023-01-30T20:28:41.492Z,9.73
2023-01-30T20:31:11.061Z,12.10
2023-01-30T20:33:38.357Z,8.57
2023-01-30T20:36:06.891Z,6.10
2023-01-30T20:38:35.317Z,11.48
2023-01-30T20:41:03.772Z,11.00
2023-01-30T20:43:34.423Z,10.30
2023-01-30T20:46:15.164Z,8.02
2023-01-30T20:48:41.742Z,5.30
2023-01-30T20:51:11.321Z,4.53
2023-01-30T20:53:38.853Z,3.92
2023-01-30T20:56:07.982Z,3.33
2023-01-30T20:58:35.461Z,3.67
2023-01-30T21:01:09.051Z,5.20
2023-01-30T21:03:35.738Z,9.95
2023-01-30T21:06:02.712Z,11.75
2023-01-30T21:08:29.645Z,9.17
2023-01-30T21:11:09.634Z,4.50
2023-01-30T21:13:37.030Z,4.80
2023-01-30T21:16:21.250Z,4.85
2023-01-30T21:18:50.189Z,4.05
2023-01-30T21:21:16.550Z,4.17
2023-01-30T21:23:43.384Z,4.30
2023-01-30T21:26:11.172Z,3.67
2023-01-30T21:28:39.161Z,4.03
2023-01-30T21:31:09.225Z,3.63
2023-01-30T21:33:36.619Z,3.87
2023-01-30T21:36:04.294Z,4.10
2023-01-30T21:38:49.166Z,5.63
2023-01-30T21:42:04.754Z,4.80
2023-01-30T21:44:38.327Z,5.03
2023-01-30T21:47:06.225Z,4.27
2023-01-30T21:49:33.627Z,4.90
2023-01-30T21:52:00.132Z,4.85
2023-01-30T21:54:26.545Z,5.47
2023-01-30T21:56:53.267Z,5.13
2023-01-30T21:59:19.725Z,3.77
2023-01-30T22:01:46.235Z,4.40
2023-01-30T22:04:14.885Z,4.93
2023-01-30T22:06:41.973Z,3.72
2023-01-30T22:09:08.752Z,3.65
2023-01-30T22:11:36.531Z,4.20
2023-01-30T22:14:03.619Z,4.18
2023-01-30T22:16:30.544Z,3.78
2023-01-30T22:19:00.351Z,3.58
2023-01-30T22:21:29.003Z,3.08
2023-01-30T22:23:55.564Z,3.60
2023-01-30T22:26:24.139Z,4.30
2023-01-30T22:28:58.598Z,3.75
2023-01-30T22:31:27.250Z,3.60
2023-01-30T22:33:55.208Z,3.33
2023-01-30T22:36:26.496Z,3.80
2023-01-30T22:38:53.336Z,3.72
2023-01-30T22:41:22.133Z,3.78
2023-01-30T22:43:51.101Z,3.20
2023-01-30T22:46:19.385Z,2.88
2023-01-30T22:48:46.003Z,3.00
2023-01-30T22:51:18.252Z,3.67
2023-01-30T22:53:47.729Z,4.20
2023-01-30T22:56:17.274Z,3.40
2023-01-30T22:58:45.059Z,3.42
2023-01-30T23:01:15.493Z,3.00
2023-01-30T23:03:43.740Z,3.10
2023-01-30T23:06:12.630Z,3.10
2023-01-30T23:08:41.040Z,3.22
2023-01-30T23:11:21.873Z,3.38
2023-01-30T23:13:51.143Z,3.77
2023-01-30T23:16:20.676Z,3.50
2023-01-30T23:18:56.377Z,3.65
2023-01-30T23:21:37.186Z,3.35
2023-01-30T23:24:12.117Z,3.42
2023-01-30T23:26:43.225Z,3.37
2023-01-30T23:29:15.550Z,3.47
2023-01-30T23:31:44.182Z,4.10
2023-01-30T23:34:19.326Z,3.67
2023-01-30T23:36:46.342Z,3.58
2023-01-30T23:39:14.344Z,3.50
2023-01-30T23:41:41.963Z,4.03
2023-01-30T23:44:08.984Z,3.17
2023-01-30T23:46:38.069Z,3.30
2023-01-30T23:49:14.927Z,2.85
2023-01-30T23:51:44.230Z,4.53
2023-01-30T23:54:12.656Z,3.63
2023-01-30T23:56:42.213Z,3.42
2023-01-30T23:59:09.041Z,3.90
